Time;durP1;ratioP1;P1;durP2;ratioP2;P2;SDS_P1;SDS_P2;PMS_P1;PMS_P2;Temp;Humidity;BMP_temperature;BMP_pressure;BME280_temperature;BME280_humidity;BME280_pressure;Samples;Min_cycle;Max_cycle;Signal;HPM_P1;HPM_P2
2022/08/17 00:00:49;;;;;;;11.27;7.90;;;21.20;1.00;;;;;;5081488;28;20438;-75
2022/08/17 00:03:20;;;;;;;10.40;8.20;;;20.90;1.00;;;;;;5090022;28;20942;-75
2022/08/17 00:06:02;;;;;;;10.03;8.07;;;20.90;1.00;;;;;;5083209;28;20450;-75
2022/08/17 00:08:34;;;;;;;10.40;8.50;;;20.90;1.00;;;;;;5090139;28;20421;-74
2022/08/17 00:11:03;;;;;;;9.33;8.20;;;21.10;1.00;;;;;;5076623;28;20463;-75
2022/08/17 00:13:41;;;;;;;10.20;8.07;;;20.90;1.00;;;;;;5084306;28;20450;-75
2022/08/17 00:16:11;;;;;;;10.93;8.00;;;21.10;1.00;;;;;;5082990;28;20459;-75
2022/08/17 00:18:38;;;;;;;8.93;7.97;;;20.70;1.00;;;;;;5087761;28;20528;-75
2022/08/17 00:21:06;;;;;;;9.90;8.90;;;20.60;1.00;;;;;;5089123;28;20940;-74
2022/08/17 00:23:32;;;;;;;11.23;8.20;;;20.80;1.00;;;;;;5088270;28;20426;-75
2022/08/17 00:25:57;;;;;;;10.17;7.53;;;20.60;1.00;;;;;;5087812;28;20823;-75
2022/08/17 00:28:23;;;;;;;12.10;8.50;;;20.60;1.00;;;;;;5085480;28;20199;-75
2022/08/17 00:30:50;;;;;;;11.10;7.70;;;20.70;1.00;;;;;;5087337;28;20269;-75
2022/08/17 00:33:18;;;;;;;8.87;7.43;;;20.70;1.00;;;;;;5080748;28;20434;-75
2022/08/17 00:35:46;;;;;;;8.90;8.00;;;20.70;1.00;;;;;;5069185;28;20492;-75
2022/08/17 00:38:12;;;;;;;9.50;8.10;;;20.70;1.00;;;;;;5083476;28;20433;-75
2022/08/17 00:40:40;;;;;;;9.63;8.00;;;20.70;1.00;;;;;;5088910;28;20405;-75
2022/08/17 00:43:16;;;;;;;10.30;7.40;;;20.70;1.00;;;;;;5085869;28;20577;-75
2022/08/17 00:45:43;;;;;;;9.80;7.57;;;20.70;1.00;;;;;;5086986;28;21071;-74
2022/08/17 00:48:08;;;;;;;10.67;8.20;;;20.50;1.00;;;;;;5086981;28;20443;-75
2022/08/17 00:50:35;;;;;;;9.03;7.80;;;20.60;1.00;;;;;;5086914;28;20508;-75
2022/08/17 00:53:03;;;;;;;10.00;8.10;;;20.50;1.00;;;;;;5078589;28;20187;-75
2022/08/17 00:55:28;;;;;;;9.13;7.87;;;20.50;1.00;;;;;;5084970;28;20405;-75
2022/08/17 00:57:58;;;;;;;8.83;7.33;;;20.50;1.00;;;;;;5091288;28;20443;-75
2022/08/17 01:00:28;;;;;;;8.10;7.30;;;20.40;1.00;;;;;;5088971;28;20194;-75
2022/08/17 01:03:05;;;;;;;10.20;7.60;;;20.40;1.00;;;;;;5080413;28;20523;-75
2022/08/17 01:05:32;;;;;;;9.83;7.77;;;20.30;1.00;;;;;;5088324;28;20440;-74
2022/08/17 01:07:59;;;;;;;10.73;8.13;;;20.30;1.00;;;;;;5080883;28;20437;-75
2022/08/17 01:10:31;;;;;;;10.07;8.27;;;20.30;1.00;;;;;;5088850;28;20450;-75
2022/08/17 01:12:56;;;;;;;10.17;8.60;;;20.30;1.00;;;;;;5086703;28;20452;-75
2022/08/17 01:15:22;;;;;;;9.97;8.40;;;20.30;1.00;;;;;;5085954;28;20438;-75
2022/08/17 01:17:48;;;;;;;19.53;7.90;;;20.20;1.00;;;;;;5086893;28;20186;-75
2022/08/17 01:20:13;;;;;;;11.17;7.40;;;20.20;1.00;;;;;;5087162;28;20175;-75
2022/08/17 01:22:39;;;;;;;9.57;7.87;;;20.20;1.00;;;;;;5084586;28;20608;-75
2022/08/17 01:25:06;;;;;;;8.73;7.83;;;20.10;1.00;;;;;;5088639;28;20247;-75
2022/08/17 01:27:34;;;;;;;11.50;7.90;;;20.20;1.00;;;;;;5088634;28;20722;-75
2022/08/17 01:30:05;;;;;;;9.40;7.90;;;20.10;1.00;;;;;;5101043;28;20470;-75
2022/08/17 01:32:31;;;;;;;14.87;8.17;;;20.10;1.00;;;;;;5085156;28;20920;-75
2022/08/17 01:34:59;;;;;;;8.10;7.23;;;20.00;1.00;;;;;;5091203;28;20528;-75
2022/08/17 01:37:34;;;;;;;9.63;7.70;;;20.10;1.00;;;;;;5092898;28;20317;-75
2022/08/17 01:40:31;;;;;;;9.40;8.30;;;20.00;1.00;;;;;;5091547;28;20436;-75
2022/08/17 01:43:02;;;;;;;8.83;7.93;;;20.00;1.00;;;;;;5090465;28;20487;-75
2022/08/17 01:45:32;;;;;;;9.30;8.17;;;20.00;1.00;;;;;;5081784;28;20453;-75
2022/08/17 01:47:58;;;;;;;9.13;8.20;;;20.10;1.00;;;;;;5075453;28;20490;-75
2022/08/17 01:50:28;;;;;;;9.60;8.13;;;19.90;1.00;;;;;;5092694;28;20491;-75
2022/08/17 01:53:03;;;;;;;9.50;8.50;;;19.90;1.00;;;;;;5084613;28;20454;-75
2022/08/17 01:55:38;;;;;;;10.10;8.37;;;19.80;1.00;;;;;;5092220;28;20451;-75
2022/08/17 01:58:08;;;;;;;11.17;8.47;;;19.80;1.00;;;;;;5083536;28;20588;-74
2022/08/17 02:00:35;;;;;;;11.33;8.90;;;19.80;1.00;;;;;;5092041;28;20405;-75
2022/08/17 02:03:00;;;;;;;10.90;8.03;;;19.80;1.00;;;;;;5082167;28;20464;-74
2022/08/17 02:05:26;;;;;;;9.97;8.50;;;19.80;1.00;;;;;;5087031;28;20461;-75
2022/08/17 02:07:52;;;;;;;10.30;8.37;;;19.80;1.00;;;;;;5081921;28;20566;-76
2022/08/17 02:10:17;;;;;;;10.47;8.40;;;19.80;1.00;;;;;;5092276;28;20172;-75
2022/08/17 02:12:43;;;;;;;10.03;8.40;;;19.80;1.00;;;;;;5088864;28;20195;-75
2022/08/17 02:15:11;;;;;;;9.90;8.90;;;19.80;1.00;;;;;;5092537;28;20180;-75
2022/08/17 02:17:39;;;;;;;9.80;8.80;;;19.80;1.00;;;;;;5090460;28;20176;-75
2022/08/17 02:20:06;;;;;;;9.13;8.13;;;19.80;1.00;;;;;;5098042;28;20418;-75
2022/08/17 02:22:32;;;;;;;9.17;8.00;;;19.80;1.00;;;;;;5101769;28;20460;-75
2022/08/17 02:24:59;;;;;;;9.57;8.10;;;19.80;1.00;;;;;;5100046;28;20405;-75
2022/08/17 02:27:25;;;;;;;11.00;7.67;;;19.70;1.00;;;;;;5103762;28;20216;-75
2022/08/17 02:29:51;;;;;;;11.03;9.20;;;19.70;1.00;;;;;;5099067;28;20405;-75
2022/08/17 02:32:19;;;;;;;9.90;8.90;;;19.60;1.00;;;;;;5085839;28;20249;-75
2022/08/17 02:34:45;;;;;;;10.60;8.77;;;19.60;1.00;;;;;;5089912;28;20183;-74
2022/08/17 02:37:10;;;;;;;11.33;9.03;;;19.60;1.00;;;;;;5088079;28;20949;-75
2022/08/17 02:39:37;;;;;;;9.87;8.87;;;19.60;1.00;;;;;;5086553;28;20179;-75
2022/08/17 02:42:03;;;;;;;10.00;8.93;;;19.60;1.00;;;;;;5086254;28;20656;-75
2022/08/17 02:44:29;;;;;;;17.53;8.67;;;19.50;1.00;;;;;;5087475;28;20416;-75
2022/08/17 02:46:55;;;;;;;11.13;8.83;;;19.50;1.00;;;;;;5087836;28;20468;-75
2022/08/17 02:49:20;;;;;;;10.50;9.17;;;19.50;1.00;;;;;;5091800;28;20259;-74
2022/08/17 02:51:48;;;;;;;13.80;9.60;;;19.50;1.00;;;;;;5087796;28;20325;-75
2022/08/17 02:54:13;;;;;;;12.13;9.00;;;19.50;1.00;;;;;;5091191;28;20198;-75
2022/08/17 02:56:39;;;;;;;10.20;9.10;;;19.40;1.00;;;;;;5081811;28;20442;-74
2022/08/17 02:59:05;;;;;;;10.17;9.10;;;19.50;1.00;;;;;;5087058;28;20305;-75
2022/08/17 03:01:30;;;;;;;11.70;9.10;;;20.80;1.00;;;;;;5082490;28;20614;-75
2022/08/17 03:03:56;;;;;;;12.30;9.47;;;19.30;1.00;;;;;;5090842;28;20198;-75
2022/08/17 03:06:22;;;;;;;9.97;8.97;;;19.40;1.00;;;;;;5082710;28;20287;-74
2022/08/17 03:08:47;;;;;;;12.33;8.97;;;19.40;1.00;;;;;;5089242;28;20617;-75
2022/08/17 03:11:13;;;;;;;10.87;9.30;;;19.40;1.00;;;;;;5086899;28;20179;-74
2022/08/17 03:13:38;;;;;;;11.73;9.40;;;19.30;1.00;;;;;;5089194;28;20593;-75
2022/08/17 03:16:04;;;;;;;12.00;9.53;;;19.30;1.00;;;;;;5086970;28;20171;-75
2022/08/17 03:18:30;;;;;;;10.67;8.70;;;19.40;1.00;;;;;;5091316;28;20251;-75
2022/08/17 03:20:58;;;;;;;11.17;9.47;;;19.40;1.00;;;;;;5087845;28;20179;-75
2022/08/17 03:23:25;;;;;;;10.37;8.50;;;19.40;1.00;;;;;;5091231;28;20993;-75
2022/08/17 03:25:51;;;;;;;10.60;9.30;;;19.50;1.00;;;;;;5086779;28;20461;-74
2022/08/17 03:28:17;;;;;;;11.67;9.00;;;19.40;1.00;;;;;;5088872;28;20445;-75
2022/08/17 03:30:42;;;;;;;9.80;8.33;;;19.40;1.00;;;;;;5090047;28;20459;-75
2022/08/17 03:33:09;;;;;;;14.60;9.67;;;19.30;1.00;;;;;;5082150;28;20834;-75
2022/08/17 03:35:38;;;;;;;9.33;8.23;;;19.30;1.00;;;;;;5089814;28;20602;-75
2022/08/17 03:38:04;;;;;;;10.00;9.00;;;19.20;1.00;;;;;;5083840;28;20928;-75
2022/08/17 03:40:31;;;;;;;11.80;9.40;;;19.10;1.00;;;;;;5088822;28;20457;-75
2022/08/17 03:43:02;;;;;;;11.70;9.07;;;19.10;1.00;;;;;;5080963;28;20449;-75
2022/08/17 03:56:43;;;;;;;14.20;9.57;;;18.90;1.00;;;;;;5098696;28;20554;-75
2022/08/17 03:59:12;;;;;;;10.57;9.47;;;18.90;1.00;;;;;;5085739;28;20425;-75
2022/08/17 04:01:37;;;;;;;11.70;9.90;;;18.90;1.00;;;;;;5085638;28;20430;-75
2022/08/17 04:04:04;;;;;;;13.77;9.70;;;18.90;1.00;;;;;;5090294;28;20769;-75
2022/08/17 04:06:29;;;;;;;11.13;9.80;;;18.80;1.00;;;;;;5086979;28;20522;-75
2022/08/17 04:08:55;;;;;;;12.13;10.00;;;18.60;1.00;;;;;;5089288;28;20422;-74
2022/08/17 04:11:20;;;;;;;11.10;9.60;;;18.30;1.00;;;;;;5084330;28;21802;-75
2022/08/17 04:13:46;;;;;;;11.33;8.13;;;18.30;1.00;;;;;;5087667;28;20210;-76
2022/08/17 04:16:11;;;;;;;10.80;8.17;;;18.40;1.00;;;;;;5087645;28;20191;-74
2022/08/17 04:18:37;;;;;;;9.13;7.90;;;18.50;1.00;;;;;;5087600;28;20213;-75
2022/08/17 04:21:02;;;;;;;9.57;8.20;;;18.70;1.00;;;;;;5081151;28;20233;-75
2022/08/17 04:23:33;;;;;;;10.40;7.70;;;18.80;1.00;;;;;;5089757;28;20191;-75
2022/08/17 04:25:59;;;;;;;9.47;8.00;;;19.00;1.00;;;;;;5083726;28;20515;-74
2022/08/17 04:28:24;;;;;;;10.37;7.27;;;19.30;1.00;;;;;;5086585;28;21032;-75
2022/08/17 04:30:50;;;;;;;9.80;7.73;;;19.50;1.00;;;;;;5089376;28;20692;-75
2022/08/17 04:33:19;;;;;;;11.20;7.40;;;19.70;1.00;;;;;;5087444;28;20199;-75
2022/08/17 04:35:53;;;;;;;9.73;8.20;;;19.80;1.00;;;;;;5089717;28;20203;-74
2022/08/17 04:38:23;;;;;;;13.53;7.33;;;19.90;1.00;;;;;;5082308;28;20480;-75
2022/08/17 04:43:34;;;;;;;9.50;7.50;;;20.00;1.00;;;;;;5078616;28;21097;-75
2022/08/17 04:46:03;;;;;;;10.20;7.37;;;20.10;1.00;;;;;;5079751;28;20928;-75
2022/08/17 04:48:35;;;;;;;9.00;7.40;;;20.20;1.00;;;;;;5088023;28;20429;-75
2022/08/17 04:51:02;;;;;;;9.50;7.87;;;20.30;1.00;;;;;;5068971;28;20406;-74
2022/08/17 04:53:28;;;;;;;10.60;7.83;;;20.40;1.00;;;;;;5077276;28;20449;-75
2022/08/17 04:55:54;;;;;;;9.50;7.40;;;20.60;1.00;;;;;;5090938;28;20422;-75
2022/08/17 04:58:20;;;;;;;8.67;6.87;;;20.70;1.00;;;;;;5086939;28;20668;-75
2022/08/17 05:00:46;;;;;;;10.40;6.67;;;20.90;1.00;;;;;;5082625;28;20190;-75
2022/08/17 05:03:12;;;;;;;9.43;7.53;;;20.90;1.00;;;;;;5088266;28;20429;-75
2022/08/17 05:05:42;;;;;;;8.50;7.60;;;21.00;1.00;;;;;;5083387;28;20462;-75
2022/08/17 05:08:08;;;;;;;10.37;7.63;;;21.20;1.00;;;;;;5089635;28;20160;-75
2022/08/17 05:10:37;;;;;;;8.57;7.60;;;21.30;1.00;;;;;;5083505;28;20430;-74
2022/08/17 05:13:11;;;;;;;10.53;7.67;;;21.30;1.00;;;;;;5080549;28;20481;-75
2022/08/17 05:15:39;;;;;;;12.90;7.60;;;21.40;1.00;;;;;;5084564;28;20524;-74
2022/08/17 05:18:06;;;;;;;16.03;8.47;;;21.40;1.00;;;;;;5088754;28;21019;-74
2022/08/17 05:20:33;;;;;;;12.03;8.00;;;21.50;1.00;;;;;;5086262;28;20416;-75
2022/08/17 05:23:03;;;;;;;8.90;8.00;;;21.60;1.00;;;;;;5088277;28;20578;-74
2022/08/17 05:25:32;;;;;;;15.83;8.40;;;21.70;1.00;;;;;;5086676;28;20405;-75
2022/08/17 05:27:57;;;;;;;10.37;7.83;;;21.80;1.00;;;;;;5085076;28;20513;-75
2022/08/17 05:30:24;;;;;;;12.60;8.50;;;21.70;1.00;;;;;;5088236;28;20425;-75
2022/08/17 05:32:59;;;;;;;9.83;8.83;;;21.80;1.00;;;;;;5080704;28;20207;-74
2022/08/17 05:35:27;;;;;;;10.83;9.00;;;21.80;1.00;;;;;;5078899;28;20448;-75
2022/08/17 05:37:53;;;;;;;11.40;9.00;;;21.80;1.00;;;;;;5088558;28;20420;-75
2022/08/17 05:40:20;;;;;;;11.97;8.60;;;22.00;1.00;;;;;;5088977;28;20401;-75
2022/08/17 05:42:46;;;;;;;10.37;8.90;;;21.80;1.00;;;;;;5088656;28;20424;-75
2022/08/17 05:45:14;;;;;;;11.33;9.03;;;22.00;1.00;;;;;;5088742;28;21147;-75
2022/08/17 05:47:42;;;;;;;12.70;10.03;;;22.10;1.00;;;;;;5087592;28;20467;-75
2022/08/17 05:50:09;;;;;;;11.03;9.03;;;21.90;1.00;;;;;;5080298;28;20425;-75
2022/08/17 05:52:44;;;;;;;10.63;9.07;;;22.00;1.00;;;;;;5077485;28;20986;-75
2022/08/17 05:55:24;;;;;;;11.37;9.47;;;22.10;1.00;;;;;;5086579;28;20417;-74
2022/08/17 05:58:25;;;;;;;22.03;9.57;;;22.10;1.00;;;;;;5097866;28;20399;-75
2022/08/17 06:00:59;;;;;;;15.70;10.00;;;22.30;1.00;;;;;;5068190;28;20434;-75
2022/08/17 06:03:41;;;;;;;23.23;9.87;;;22.40;1.00;;;;;;5070322;28;20428;-75
2022/08/17 06:06:21;;;;;;;12.70;9.60;;;22.50;1.00;;;;;;5077785;28;20571;-75
2022/08/17 06:09:10;;;;;;;17.80;9.90;;;22.40;1.00;;;;;;5072183;28;20450;-75
2022/08/17 06:12:02;;;;;;;12.63;10.17;;;22.40;1.00;;;;;;5076664;28;20517;-75
2022/08/17 06:14:45;;;;;;;18.57;10.27;;;22.50;1.00;;;;;;5076714;28;20420;-75
2022/08/17 06:17:15;;;;;;;12.97;10.00;;;22.50;1.00;;;;;;5091245;28;20412;-75
2022/08/17 06:19:51;;;;;;;12.40;10.23;;;22.70;1.00;;;;;;5089522;28;20488;-75
2022/08/17 06:22:20;;;;;;;11.83;9.27;;;22.90;1.00;;;;;;5085143;28;20827;-75
2022/08/17 06:25:00;;;;;;;16.43;10.73;;;23.20;1.00;;;;;;5084553;28;20430;-75
2022/08/17 06:27:36;;;;;;;15.10;10.40;;;23.30;1.00;;;;;;5087681;28;20473;-79
2022/08/17 06:30:07;;;;;;;12.53;10.40;;;23.40;1.00;;;;;;5077144;28;20526;-77
2022/08/17 06:32:44;;;;;;;12.53;10.10;;;23.50;1.00;;;;;;5079063;28;20446;-78
2022/08/17 06:35:12;;;;;;;12.63;10.27;;;23.60;1.00;;;;;;5083298;28;20436;-80
2022/08/17 06:37:59;;;;;;;10.80;9.40;;;23.70;1.00;;;;;;5092531;28;20413;-80
2022/08/17 06:40:56;;;;;;;13.73;10.60;;;23.90;1.00;;;;;;5086319;28;20444;-76
2022/08/17 06:43:43;;;;;;;10.83;9.70;;;24.00;1.00;;;;;;5086686;28;20443;-79
2022/08/17 06:46:29;;;;;;;13.30;10.00;;;24.20;1.00;;;;;;5080816;28;20460;-81
2022/08/17 06:49:14;;;;;;;10.87;9.70;;;24.40;1.00;;;;;;5085442;28;20444;-80
2022/08/17 06:51:45;;;;;;;13.57;9.50;;;24.20;1.00;;;;;;5084260;28;20420;-75
2022/08/17 06:54:25;;;;;;;12.17;10.47;;;24.20;1.00;;;;;;5081356;28;20967;-75
2022/08/17 06:56:59;;;;;;;10.70;9.60;;;24.30;1.00;;;;;;5081872;28;20559;-75
2022/08/17 06:59:35;;;;;;;14.83;10.10;;;24.30;1.00;;;;;;5089666;28;20803;-75
2022/08/17 07:02:04;;;;;;;15.83;9.80;;;24.20;1.00;;;;;;5082502;28;20444;-75
2022/08/17 07:04:32;;;;;;;12.03;9.90;;;24.20;1.00;;;;;;5086390;28;20417;-76
2022/08/17 07:08:00;;;;;;;13.13;9.17;;;23.90;1.00;;;;;;5098322;28;20452;-75
2022/08/17 07:09:51;;;;;;;11.90;9.03;;;23.80;1.00;;;;;;5084751;28;20483;-75
2022/08/17 07:12:22;;;;;;;13.07;9.10;;;23.60;1.00;;;;;;5081999;28;20456;-75
2022/08/17 07:14:59;;;;;;;13.27;9.80;;;23.50;1.00;;;;;;5101766;28;20417;-75
2022/08/17 07:17:26;;;;;;;14.03;8.57;;;23.40;1.00;;;;;;5092317;28;20437;-76
2022/08/17 07:20:01;;;;;;;13.77;9.80;;;23.40;1.00;;;;;;5102907;28;20413;-75
2022/08/17 07:22:48;;;;;;;11.40;9.17;;;23.40;1.00;;;;;;5093797;28;20855;-75
2022/08/17 07:25:18;;;;;;;14.10;9.23;;;23.50;1.00;;;;;;5085060;28;20425;-75
2022/08/17 07:27:49;;;;;;;18.93;9.73;;;23.50;1.00;;;;;;5083277;28;20549;-75
2022/08/17 07:30:33;;;;;;;13.83;9.00;;;23.50;1.00;;;;;;5087020;28;20807;-75
2022/08/17 07:33:10;;;;;;;19.20;9.83;;;23.40;1.00;;;;;;5088689;28;20449;-75
2022/08/17 07:35:40;;;;;;;15.87;9.93;;;23.50;1.00;;;;;;5088407;28;20426;-75
2022/08/17 07:38:13;;;;;;;19.70;9.97;;;23.60;1.00;;;;;;5085897;28;20466;-75
2022/08/17 07:40:46;;;;;;;15.83;9.63;;;23.60;1.00;;;;;;5091124;28;20463;-75
2022/08/17 07:43:23;;;;;;;12.30;9.63;;;23.60;1.00;;;;;;5081130;28;20449;-75
2022/08/17 07:49:02;;;;;;;12.90;9.83;;;23.50;1.00;;;;;;5087367;28;20801;-75
2022/08/17 07:51:31;;;;;;;28.07;9.87;;;23.50;1.00;;;;;;5092018;28;20578;-75
2022/08/17 07:54:02;;;;;;;15.03;9.87;;;23.60;1.00;;;;;;5083715;28;20539;-76
2022/08/17 07:56:35;;;;;;;14.20;9.77;;;23.70;1.00;;;;;;5086042;28;20456;-75
2022/08/17 07:59:26;;;;;;;13.23;9.83;;;24.00;1.00;;;;;;5094232;28;20517;-75
2022/08/17 08:02:04;;;;;;;23.07;10.63;;;24.20;1.00;;;;;;5088438;28;20888;-75
2022/08/17 08:04:43;;;;;;;18.70;9.67;;;24.40;1.00;;;;;;5089915;28;20853;-75
2022/08/17 08:07:15;;;;;;;15.57;10.30;;;24.60;1.00;;;;;;5083179;28;20470;-75
2022/08/17 08:09:58;;;;;;;17.30;9.43;;;24.80;1.00;;;;;;5099445;28;20491;-75
2022/08/17 08:12:23;;;;;;;13.33;10.50;;;24.90;1.00;;;;;;5083487;28;20453;-76
2022/08/17 08:14:56;;;;;;;14.67;9.83;;;25.10;1.00;;;;;;5087359;28;21114;-75
2022/08/17 08:17:34;;;;;;;16.63;10.60;;;25.30;1.00;;;;;;5086196;28;20684;-75
2022/08/17 08:20:04;;;;;;;12.97;9.70;;;25.40;1.00;;;;;;5088979;28;20428;-75
2022/08/17 08:22:56;;;;;;;13.47;10.33;;;25.50;1.00;;;;;;5075136;28;20958;-75
2022/08/17 08:25:44;;;;;;;13.23;9.60;;;25.80;1.00;;;;;;5077325;28;20437;-75
2022/08/17 08:28:19;;;;;;;13.00;9.90;;;25.60;1.00;;;;;;5076915;28;20449;-75
2022/08/17 08:30:51;;;;;;;12.97;9.60;;;25.60;1.00;;;;;;5089674;28;20408;-75
2022/08/17 08:33:33;;;;;;;12.20;9.03;;;25.50;1.00;;;;;;5083320;28;20506;-75
2022/08/17 08:36:22;;;;;;;12.70;9.10;;;25.70;1.00;;;;;;5079537;28;20520;-75
2022/08/17 08:39:04;;;;;;;11.43;9.47;;;25.70;1.00;;;;;;5086997;28;20417;-75
2022/08/17 08:41:45;;;;;;;10.80;9.30;;;25.70;1.00;;;;;;5079491;28;20434;-76
2022/08/17 08:44:43;;;;;;;12.23;9.33;;;25.80;1.00;;;;;;5081250;28;20973;-76
2022/08/17 08:47:35;;;;;;;12.67;8.60;;;25.90;1.00;;;;;;5075586;28;20460;-75
2022/08/17 08:50:10;;;;;;;11.27;8.87;;;26.10;1.00;;;;;;5082839;28;20905;-76
2022/08/17 08:52:48;;;;;;;10.43;8.70;;;26.00;1.00;;;;;;5086492;28;20463;-75
2022/08/17 08:55:41;;;;;;;13.40;9.60;;;25.90;1.00;;;;;;5089445;28;20949;-75
2022/08/17 08:58:14;;;;;;;9.07;8.00;;;25.80;1.00;;;;;;5075583;28;20452;-75
2022/08/17 09:00:44;;;;;;;9.73;7.83;;;25.80;1.00;;;;;;5083527;28;20466;-75
2022/08/17 09:03:47;;;;;;;10.83;8.37;;;25.70;1.00;;;;;;5077590;28;20453;-75
2022/08/17 09:06:15;;;;;;;10.90;8.33;;;25.80;1.00;;;;;;5070758;28;20742;-75
2022/08/17 09:08:52;;;;;;;11.30;8.60;;;25.90;1.00;;;;;;5095315;28;20408;-75
2022/08/17 09:11:39;;;;;;;9.10;8.20;;;26.10;1.00;;;;;;5089273;28;20418;-75
2022/08/17 09:14:15;;;;;;;14.33;8.10;;;26.20;1.00;;;;;;5079610;28;20459;-75
2022/08/17 09:17:04;;;;;;;12.63;7.90;;;26.40;1.00;;;;;;5081262;28;20801;-75
2022/08/17 09:19:53;;;;;;;9.83;7.33;;;26.60;1.00;;;;;;5086990;28;20440;-75
2022/08/17 09:22:21;;;;;;;13.20;7.50;;;26.80;1.00;;;;;;5088988;28;20448;-75
2022/08/17 09:24:49;;;;;;;12.00;7.30;;;26.90;1.00;;;;;;5093360;28;20572;-75
2022/08/17 09:27:20;;;;;;;10.43;7.30;;;26.70;1.00;;;;;;5080013;28;20841;-75
2022/08/17 09:29:52;;;;;;;11.90;6.73;;;26.50;1.00;;;;;;5089006;28;20402;-76
2022/08/17 09:32:37;;;;;;;8.83;6.53;;;26.40;1.00;;;;;;5080646;28;20449;-75
2022/08/17 09:35:19;;;;;;;11.50;6.90;;;26.30;1.00;;;;;;5082278;28;20429;-75
2022/08/17 09:38:27;;;;;;;11.97;7.20;;;26.30;1.00;;;;;;5089180;28;20429;-75
2022/08/17 09:41:12;;;;;;;12.13;7.20;;;26.10;1.00;;;;;;5087335;28;20409;-74
2022/08/17 09:43:59;;;;;;;12.77;7.87;;;26.10;1.00;;;;;;5094010;28;20472;-74
2022/08/17 09:46:44;;;;;;;15.03;7.60;;;26.10;1.00;;;;;;5083421;28;20460;-76
2022/08/17 09:49:39;;;;;;;10.67;7.00;;;26.20;1.00;;;;;;5081178;28;20440;-76
2022/08/17 09:52:19;;;;;;;17.23;7.47;;;26.50;1.00;;;;;;5092291;28;20413;-75
2022/08/17 09:54:46;;;;;;;16.33;7.63;;;26.90;1.00;;;;;;5086008;28;20426;-76
2022/08/17 09:57:39;;;;;;;12.10;7.77;;;27.30;1.00;;;;;;5084872;28;20429;-75
2022/08/17 10:00:17;;;;;;;14.67;7.13;;;27.70;1.00;;;;;;5086320;28;20757;-75
2022/08/17 10:02:55;;;;;;;13.50;7.63;;;28.00;1.00;;;;;;5095964;28;20452;-76
2022/08/17 10:05:45;;;;;;;20.37;7.30;;;28.10;1.00;;;;;;5092656;28;20205;-75
2022/08/17 10:08:42;;;;;;;16.50;7.90;;;28.00;1.00;;;;;;5092227;28;20328;-76
2022/08/17 10:14:35;;;;;;;11.00;7.60;;;27.30;1.00;;;;;;5086311;28;20189;-75
2022/08/17 10:17:19;;;;;;;8.90;7.33;;;27.20;1.00;;;;;;5081951;28;20267;-76
2022/08/17 10:20:03;;;;;;;10.83;7.40;;;27.10;1.00;;;;;;5087299;28;20179;-75
2022/08/17 10:28:44;;;;;;;12.77;9.60;;;26.50;1.00;;;;;;5083920;28;20278;-75
2022/08/17 10:31:16;;;;;;;11.47;9.90;;;26.10;1.00;;;;;;5090243;28;20776;-75
2022/08/17 10:34:05;;;;;;;13.03;9.70;;;25.80;1.00;;;;;;5086535;28;20433;-76
2022/08/17 10:36:38;;;;;;;15.27;10.83;;;25.60;1.00;;;;;;5095893;28;20936;-76
2022/08/17 10:39:40;;;;;;;13.67;9.60;;;25.30;1.00;;;;;;5075578;28;20437;-75
2022/08/17 10:42:36;;;;;;;14.40;11.20;;;25.10;1.00;;;;;;5088896;28;21003;-75
2022/08/17 10:45:16;;;;;;;14.60;11.10;;;25.00;1.00;;;;;;5082416;28;20445;-74
2022/08/17 10:48:04;;;;;;;13.33;10.30;;;25.10;1.00;;;;;;5085989;28;20460;-75
2022/08/17 10:51:00;;;;;;;11.00;9.70;;;25.00;1.00;;;;;;5074161;28;20430;-75
2022/08/17 10:53:31;;;;;;;14.33;10.20;;;24.90;1.00;;;;;;5084347;28;20441;-75
2022/08/17 10:56:17;;;;;;;13.40;10.97;;;24.90;1.00;;;;;;5089142;28;20436;-75
2022/08/17 10:58:57;;;;;;;10.43;9.33;;;25.00;1.00;;;;;;5077625;28;20426;-76
2022/08/17 11:01:36;;;;;;;9.80;8.80;;;25.10;1.00;;;;;;5084945;28;20462;-75
2022/08/17 11:04:22;;;;;;;11.23;9.77;;;25.30;1.00;;;;;;5077872;28;20449;-74
2022/08/17 11:07:04;;;;;;;17.00;9.17;;;25.40;1.00;;;;;;5089386;28;20460;-75
2022/08/17 11:09:59;;;;;;;11.07;9.30;;;25.80;1.00;;;;;;5090475;28;20512;-76
2022/08/17 11:12:48;;;;;;;12.07;8.93;;;26.10;1.00;;;;;;5101828;28;20770;-75
2022/08/17 11:15:18;;;;;;;11.70;8.57;;;26.40;1.00;;;;;;5089741;28;20404;-76
2022/08/17 11:18:36;;;;;;;10.87;8.00;;;26.90;1.00;;;;;;5102754;28;20413;-75
2022/08/17 11:21:23;;;;;;;10.07;9.07;;;27.50;1.00;;;;;;5038391;28;20540;-76
2022/08/17 11:24:27;;;;;;;10.57;8.63;;;28.20;1.00;;;;;;5100422;28;20238;-76
2022/08/17 11:27:08;;;;;;;8.67;7.83;;;28.50;1.00;;;;;;5096860;28;20661;-75
2022/08/17 11:29:50;;;;;;;8.73;7.30;;;28.90;1.00;;;;;;5086127;28;20269;-76
2022/08/17 11:32:40;;;;;;;9.17;7.30;;;28.70;1.00;;;;;;5080318;28;20191;-75
2022/08/17 11:35:21;;;;;;;8.43;7.53;;;28.30;1.00;;;;;;5073124;28;20156;-75
2022/08/17 11:38:00;;;;;;;8.23;7.40;;;28.20;1.00;;;;;;5093105;28;20193;-75
2022/08/17 11:40:34;;;;;;;10.97;7.80;;;28.30;1.00;;;;;;5095458;28;20202;-75
2022/08/17 11:43:06;;;;;;;11.03;8.10;;;28.50;1.00;;;;;;5077684;28;20561;-76
2022/08/17 11:46:06;;;;;;;8.03;7.23;;;28.60;1.00;;;;;;5080519;28;20168;-76
2022/08/17 11:52:07;;;;;;;12.20;7.90;;;29.80;1.00;;;;;;5084815;28;20203;-76
2022/08/17 11:54:43;;;;;;;15.88;8.05;;;30.10;1.00;;;;;;5087783;28;20178;-76
2022/08/17 11:57:24;;;;;;;8.75;7.15;;;30.00;1.00;;;;;;5079685;28;20170;-76
2022/08/17 11:59:54;;;;;;;9.15;7.28;;;30.10;1.00;;;;;;5085283;28;20174;-76
2022/08/17 12:02:29;;;;;;;9.40;7.47;;;30.40;1.00;;;;;;5078905;28;20211;-76
2022/08/17 12:05:13;;;;;;;11.70;7.50;;;31.20;1.00;;;;;;5084881;28;20661;-76
2022/08/17 12:08:03;;;;;;;10.40;7.07;;;31.60;1.00;;;;;;5087198;28;20247;-76
2022/08/17 12:10:33;;;;;;;10.65;6.88;;;33.60;1.00;;;;;;5093962;28;20740;-76
2022/08/17 12:13:05;;;;;;;8.35;7.15;;;34.50;1.00;;;;;;5092345;28;20298;-76
2022/08/17 12:15:40;;;;;;;7.78;6.82;;;34.30;1.00;;;;;;5082982;28;20264;-77
2022/08/17 12:18:05;;;;;;;8.13;6.78;;;34.10;1.00;;;;;;5084800;28;20178;-76
2022/08/17 12:20:37;;;;;;;6.80;6.10;;;33.20;1.00;;;;;;5097556;28;20174;-76
2022/08/17 12:23:08;;;;;;;7.35;6.28;;;33.10;1.00;;;;;;5089095;28;20195;-76
2022/08/17 12:25:46;;;;;;;7.57;6.65;;;33.20;1.00;;;;;;5082331;28;20179;-76
2022/08/17 12:28:23;;;;;;;6.93;5.82;;;32.50;1.00;;;;;;5088324;28;20559;-76
2022/08/17 12:30:50;;;;;;;8.52;6.40;;;32.20;1.00;;;;;;5087518;28;20187;-76
2022/08/17 12:33:20;;;;;;;6.85;6.13;;;32.10;1.00;;;;;;5077325;28;20593;-76
2022/08/17 12:35:46;;;;;;;7.95;6.32;;;31.60;1.00;;;;;;5078688;28;20210;-76
2022/08/17 12:38:14;;;;;;;7.65;6.00;;;31.00;1.00;;;;;;5079618;28;20259;-76
2022/08/17 12:40:55;;;;;;;6.55;5.75;;;30.50;1.00;;;;;;5081698;28;20646;-76
2022/08/17 12:43:26;;;;;;;7.13;6.13;;;30.10;1.00;;;;;;5075501;28;20198;-76
2022/08/17 12:45:59;;;;;;;7.00;6.30;;;29.90;1.00;;;;;;5082320;28;20175;-76
2022/08/17 12:48:27;;;;;;;7.43;5.90;;;29.60;1.00;;;;;;5085703;28;20221;-76
2022/08/17 12:50:59;;;;;;;8.88;6.63;;;29.40;1.00;;;;;;5084895;28;20235;-74
2022/08/17 12:53:28;;;;;;;7.28;6.53;;;29.20;1.00;;;;;;5079083;28;20207;-76
2022/08/17 12:55:56;;;;;;;6.93;6.22;;;29.20;1.00;;;;;;5073150;28;20292;-75
2022/08/17 12:58:27;;;;;;;7.33;6.63;;;29.30;1.00;;;;;;5081092;28;20746;-76
2022/08/17 13:01:19;;;;;;;8.30;7.10;;;29.30;1.00;;;;;;5077310;28;20596;-75
2022/08/17 13:03:48;;;;;;;9.20;7.23;;;29.10;1.00;;;;;;5082196;28;20261;-76
2022/08/17 13:06:27;;;;;;;8.40;6.80;;;29.20;1.00;;;;;;5077668;28;20203;-75
2022/08/17 13:08:53;;;;;;;8.50;6.67;;;29.40;1.00;;;;;;5083129;28;20194;-76
2022/08/17 13:11:23;;;;;;;8.00;7.03;;;29.40;1.00;;;;;;5081058;28;20613;-76
2022/08/17 13:13:53;;;;;;;12.63;6.83;;;29.50;1.00;;;;;;5085107;28;20191;-75
2022/08/17 13:16:24;;;;;;;11.05;6.82;;;29.70;1.00;;;;;;5079645;28;20211;-76
2022/08/17 13:19:04;;;;;;;7.57;6.65;;;30.40;1.00;;;;;;5084223;28;20175;-76
2022/08/17 13:21:32;;;;;;;9.07;6.80;;;30.80;1.00;;;;;;5084556;28;20179;-75
2022/08/17 13:24:09;;;;;;;6.47;5.78;;;31.20;1.00;;;;;;5084142;28;20697;-76
2022/08/17 13:26:42;;;;;;;7.25;5.97;;;32.20;1.00;;;;;;5098568;28;20209;-76
2022/08/17 13:29:34;;;;;;;6.93;6.22;;;32.60;1.00;;;;;;5088692;28;20265;-76
2022/08/17 13:32:05;;;;;;;7.50;5.93;;;32.40;1.00;;;;;;5085625;28;20201;-76
2022/08/17 13:34:44;;;;;;;9.88;6.00;;;32.70;1.00;;;;;;5089995;28;20278;-76
2022/08/17 13:37:25;;;;;;;9.00;5.97;;;34.80;1.00;;;;;;5083338;28;20179;-76
2022/08/17 13:40:14;;;;;;;7.05;6.05;;;36.60;1.00;;;;;;5088303;28;20197;-76
2022/08/17 13:42:46;;;;;;;6.40;5.53;;;37.70;1.00;;;;;;5085933;28;20223;-76
2022/08/17 13:45:34;;;;;;;7.30;6.15;;;38.10;1.00;;;;;;5092418;28;20247;-77
2022/08/17 13:48:15;;;;;;;6.93;5.70;;;38.00;1.00;;;;;;5089760;28;20214;-76
2022/08/17 13:50:41;;;;;;;7.07;5.43;;;37.80;1.00;;;;;;5086207;28;20167;-77
2022/08/17 13:53:31;;;;;;;6.60;5.72;;;37.80;1.00;;;;;;5085209;28;20562;-77
2022/08/17 13:56:10;;;;;;;6.00;5.40;;;39.00;1.00;;;;;;5086451;28;20186;-77